sensor_id;sensor_type;location;lat;lon;timestamp;temperature;humidity
12111;DHT22;6119;52.372;8.990;2024-03-23T00:54:28;9.50;99.90
12111;DHT22;6119;52.372;8.990;2024-03-23T00:57:13;9.40;99.90
12111;DHT22;6119;52.372;8.990;2024-03-23T00:59:59;9.30;99.90
12111;DHT22;6119;52.372;8.990;2024-03-23T01:02:43;9.40;99.90
12111;DHT22;6119;52.372;8.990;2024-03-23T01:05:29;9.30;99.90
12111;DHT22;6119;52.372;8.990;2024-03-23T01:08:14;9.30;99.90
12111;DHT22;6119;52.372;8.990;2024-03-23T01:11:02;9.30;99.90
12111;DHT22;6119;52.372;8.990;2024-03-23T01:13:46;9.20;99.90
12111;DHT22;6119;52.372;8.990;2024-03-23T01:16:32;9.30;99.90
12111;DHT22;6119;52.372;8.990;2024-03-23T01:19:17;9.10;99.90
12111;DHT22;6119;52.372;8.990;2024-03-23T01:22:03;9.20;99.90
12111;DHT22;6119;52.372;8.990;2024-03-23T01:24:47;9.00;99.90
12111;DHT22;6119;52.372;8.990;2024-03-23T01:27:34;9.10;99.90
12111;DHT22;6119;52.372;8.990;2024-03-23T01:30:20;9.00;99.90
12111;DHT22;6119;52.372;8.990;2024-03-23T01:33:05;9.00;99.90
12111;DHT22;6119;52.372;8.990;2024-03-23T01:35:50;8.90;99.90
12111;DHT22;6119;52.372;8.990;2024-03-23T01:38:35;9.00;99.90
12111;DHT22;6119;52.372;8.990;2024-03-23T01:41:21;9.00;99.90
12111;DHT22;6119;52.372;8.990;2024-03-23T01:44:08;9.00;99.90
12111;DHT22;6119;52.372;8.990;2024-03-23T01:46:53;9.00;99.90
12111;DHT22;6119;52.372;8.990;2024-03-23T01:49:39;8.80;99.90
12111;DHT22;6119;52.372;8.990;2024-03-23T01:52:23;8.90;99.90
12111;DHT22;6119;52.372;8.990;2024-03-23T01:55:09;8.90;99.90
12111;DHT22;6119;52.372;8.990;2024-03-23T01:57:56;8.80;99.90
12111;DHT22;6119;52.372;8.990;2024-03-23T02:00:44;8.90;99.90
12111;DHT22;6119;52.372;8.990;2024-03-23T02:03:28;8.90;99.90
12111;DHT22;6119;52.372;8.990;2024-03-23T02:06:14;8.80;99.90
12111;DHT22;6119;52.372;8.990;2024-03-23T02:09:00;8.80;99.90
12111;DHT22;6119;52.372;8.990;2024-03-23T02:11:45;8.80;99.90
12111;DHT22;6119;52.372;8.990;2024-03-23T02:14:31;8.80;99.90
12111;DHT22;6119;52.372;8.990;2024-03-23T02:17:18;8.90;99.90
12111;DHT22;6119;52.372;8.990;2024-03-23T02:20:04;8.90;99.90
12111;DHT22;6119;52.372;8.990;2024-03-23T02:22:52;8.80;99.90
12111;DHT22;6119;52.372;8.990;2024-03-23T02:25:38;8.90;99.90
12111;DHT22;6119;52.372;8.990;2024-03-23T02:28:24;8.90;99.90
12111;DHT22;6119;52.372;8.990;2024-03-23T02:31:10;8.90;99.90
12111;DHT22;6119;52.372;8.990;2024-03-23T02:33:55;8.90;99.90
12111;DHT22;6119;52.372;8.990;2024-03-23T02:36:40;8.90;99.90
12111;DHT22;6119;52.372;8.990;2024-03-23T02:39:26;8.90;99.90
12111;DHT22;6119;52.372;8.990;2024-03-23T02:42:12;8.90;99.90
12111;DHT22;6119;52.372;8.990;2024-03-23T02:44:59;8.90;99.90
12111;DHT22;6119;52.372;8.990;2024-03-23T02:47:45;8.80;99.90
12111;DHT22;6119;52.372;8.990;2024-03-23T02:50:29;8.70;99.90
12111;DHT22;6119;52.372;8.990;2024-03-23T02:53:15;8.60;99.90
12111;DHT22;6119;52.372;8.990;2024-03-23T02:56:02;8.60;99.90
12111;DHT22;6119;52.372;8.990;2024-03-23T02:58:47;8.70;99.90
12111;DHT22;6119;52.372;8.990;2024-03-23T03:01:32;8.60;99.90
12111;DHT22;6119;52.372;8.990;2024-03-23T03:04:17;8.80;99.90
12111;DHT22;6119;52.372;8.990;2024-03-23T03:07:02;8.70;99.90
12111;DHT22;6119;52.372;8.990;2024-03-23T03:09:48;8.50;99.90
12111;DHT22;6119;52.372;8.990;2024-03-23T03:12:34;8.60;99.90
12111;DHT22;6119;52.372;8.990;2024-03-23T03:15:20;8.60;99.90
12111;DHT22;6119;52.372;8.990;2024-03-23T03:18:05;8.40;99.90
12111;DHT22;6119;52.372;8.990;2024-03-23T03:20:54;8.50;99.90
12111;DHT22;6119;52.372;8.990;2024-03-23T03:23:39;8.60;99.90
12111;DHT22;6119;52.372;8.990;2024-03-23T03:26:25;8.60;99.90
12111;DHT22;6119;52.372;8.990;2024-03-23T03:29:11;8.60;99.90
12111;DHT22;6119;52.372;8.990;2024-03-23T03:31:57;8.50;99.90
12111;DHT22;6119;52.372;8.990;2024-03-23T03:34:44;8.40;99.90
12111;DHT22;6119;52.372;8.990;2024-03-23T03:37:29;8.50;99.90
12111;DHT22;6119;52.372;8.990;2024-03-23T03:40:14;8.60;99.90
12111;DHT22;6119;52.372;8.990;2024-03-23T03:42:59;8.40;99.90
12111;DHT22;6119;52.372;8.990;2024-03-23T03:45:52;8.50;99.90
12111;DHT22;6119;52.372;8.990;2024-03-23T03:48:37;8.50;99.90
12111;DHT22;6119;52.372;8.990;2024-03-23T03:51:24;8.40;99.90
12111;DHT22;6119;52.372;8.990;2024-03-23T03:54:08;8.40;99.90
12111;DHT22;6119;52.372;8.990;2024-03-23T03:56:54;8.40;99.90
12111;DHT22;6119;52.372;8.990;2024-03-23T03:59:38;8.50;99.90
12111;DHT22;6119;52.372;8.990;2024-03-23T04:02:25;8.50;99.90
12111;DHT22;6119;52.372;8.990;2024-03-23T04:05:10;8.50;99.90
12111;DHT22;6119;52.372;8.990;2024-03-23T04:07:57;8.50;99.90
12111;DHT22;6119;52.372;8.990;2024-03-23T04:10:41;8.50;99.90
12111;DHT22;6119;52.372;8.990;2024-03-23T04:13:27;8.50;99.90
12111;DHT22;6119;52.372;8.990;2024-03-23T04:16:12;8.60;99.90
12111;DHT22;6119;52.372;8.990;2024-03-23T04:18:59;8.60;99.90
12111;DHT22;6119;52.372;8.990;2024-03-23T04:21:44;8.60;99.90
12111;DHT22;6119;52.372;8.990;2024-03-23T04:24:29;8.50;99.90
12111;DHT22;6119;52.372;8.990;2024-03-23T04:27:14;8.40;99.90
12111;DHT22;6119;52.372;8.990;2024-03-23T04:30:00;8.50;99.90
12111;DHT22;6119;52.372;8.990;2024-03-23T04:32:45;8.50;99.90
12111;DHT22;6119;52.372;8.990;2024-03-23T04:35:33;8.50;99.90
12111;DHT22;6119;52.372;8.990;2024-03-23T04:38:18;8.50;99.90
12111;DHT22;6119;52.372;8.990;2024-03-23T04:41:04;8.30;99.90
12111;DHT22;6119;52.372;8.990;2024-03-23T04:43:50;8.30;99.90
12111;DHT22;6119;52.372;8.990;2024-03-23T04:46:35;8.40;99.90
12111;DHT22;6119;52.372;8.990;2024-03-23T04:49:21;8.40;99.90
12111;DHT22;6119;52.372;8.990;2024-03-23T04:52:08;8.50;99.90
12111;DHT22;6119;52.372;8.990;2024-03-23T04:54:54;8.40;99.90
12111;DHT22;6119;52.372;8.990;2024-03-23T04:57:40;8.40;99.90
12111;DHT22;6119;52.372;8.990;2024-03-23T05:00:25;8.40;99.90
12111;DHT22;6119;52.372;8.990;2024-03-23T05:03:11;8.30;99.90
12111;DHT22;6119;52.372;8.990;2024-03-23T05:05:56;8.20;99.90
12111;DHT22;6119;52.372;8.990;2024-03-23T05:08:42;8.10;99.90
12111;DHT22;6119;52.372;8.990;2024-03-23T05:11:28;8.00;99.90
12111;DHT22;6119;52.372;8.990;2024-03-23T05:14:13;7.90;99.90
12111;DHT22;6119;52.372;8.990;2024-03-23T05:16:59;7.80;99.90
12111;DHT22;6119;52.372;8.990;2024-03-23T05:19:44;7.80;99.90
12111;DHT22;6119;52.372;8.990;2024-03-23T05:22:29;7.90;99.90
12111;DHT22;6119;52.372;8.990;2024-03-23T05:25:16;7.90;99.90
12111;DHT22;6119;52.372;8.990;2024-03-23T05:28:02;7.80;99.90
12111;DHT22;6119;52.372;8.990;2024-03-23T05:30:50;7.80;99.90
12111;DHT22;6119;52.372;8.990;2024-03-23T05:33:36;7.80;99.90
12111;DHT22;6119;52.372;8.990;2024-03-23T05:36:22;7.90;99.90
12111;DHT22;6119;52.372;8.990;2024-03-23T05:39:09;8.00;99.90
12111;DHT22;6119;52.372;8.990;2024-03-23T05:41:55;8.00;99.90
12111;DHT22;6119;52.372;8.990;2024-03-23T05:44:42;8.00;99.90
12111;DHT22;6119;52.372;8.990;2024-03-23T05:47:27;8.10;99.90
12111;DHT22;6119;52.372;8.990;2024-03-23T05:50:13;8.00;99.90
12111;DHT22;6119;52.372;8.990;2024-03-23T05:52:58;8.00;99.90
12111;DHT22;6119;52.372;8.990;2024-03-23T05:55:45;8.10;99.90
12111;DHT22;6119;52.372;8.990;2024-03-23T05:58:31;7.80;99.90
12111;DHT22;6119;52.372;8.990;2024-03-23T06:01:17;7.80;99.90
12111;DHT22;6119;52.372;8.990;2024-03-23T06:04:02;7.80;99.90
12111;DHT22;6119;52.372;8.990;2024-03-23T06:06:48;7.90;99.90
12111;DHT22;6119;52.372;8.990;2024-03-23T06:09:32;7.90;99.90
12111;DHT22;6119;52.372;8.990;2024-03-23T06:12:18;7.90;99.90
12111;DHT22;6119;52.372;8.990;2024-03-23T06:15:05;7.90;99.90
12111;DHT22;6119;52.372;8.990;2024-03-23T06:17:54;7.80;99.90
12111;DHT22;6119;52.372;8.990;2024-03-23T06:20:39;8.00;99.90
12111;DHT22;6119;52.372;8.990;2024-03-23T06:23:25;7.90;99.90
12111;DHT22;6119;52.372;8.990;2024-03-23T06:26:10;7.90;99.90
12111;DHT22;6119;52.372;8.990;2024-03-23T06:28:55;8.00;99.90
12111;DHT22;6119;52.372;8.990;2024-03-23T06:31:42;8.00;99.90
12111;DHT22;6119;52.372;8.990;2024-03-23T06:34:28;8.00;99.90
12111;DHT22;6119;52.372;8.990;2024-03-23T06:37:14;8.10;99.90
12111;DHT22;6119;52.372;8.990;2024-03-23T06:39:59;8.10;99.90
12111;DHT22;6119;52.372;8.990;2024-03-23T06:42:45;8.10;99.90
12111;DHT22;6119;52.372;8.990;2024-03-23T06:45:29;8.10;99.90
12111;DHT22;6119;52.372;8.990;2024-03-23T06:48:16;8.10;99.90
12111;DHT22;6119;52.372;8.990;2024-03-23T06:51:01;8.00;99.90
12111;DHT22;6119;52.372;8.990;2024-03-23T06:53:47;8.10;99.90
12111;DHT22;6119;52.372;8.990;2024-03-23T06:56:32;8.00;99.90
12111;DHT22;6119;52.372;8.990;2024-03-23T06:59:17;8.10;99.90
12111;DHT22;6119;52.372;8.990;2024-03-23T07:02:02;8.10;99.90
12111;DHT22;6119;52.372;8.990;2024-03-23T07:04:49;8.10;99.90
12111;DHT22;6119;52.372;8.990;2024-03-23T07:07:34;8.10;99.90
12111;DHT22;6119;52.372;8.990;2024-03-23T07:10:19;8.10;99.90
12111;DHT22;6119;52.372;8.990;2024-03-23T07:13:04;8.10;99.90
12111;DHT22;6119;52.372;8.990;2024-03-23T07:15:53;8.00;99.90
12111;DHT22;6119;52.372;8.990;2024-03-23T07:18:39;8.00;99.90
12111;DHT22;6119;52.372;8.990;2024-03-23T07:21:26;8.00;99.90
12111;DHT22;6119;52.372;8.990;2024-03-23T07:24:11;8.00;99.90
12111;DHT22;6119;52.372;8.990;2024-03-23T07:26:57;8.00;99.90
12111;DHT22;6119;52.372;8.990;2024-03-23T07:29:42;8.10;99.90
12111;DHT22;6119;52.372;8.990;2024-03-23T07:32:28;8.00;99.90
12111;DHT22;6119;52.372;8.990;2024-03-23T07:35:13;8.10;99.90
12111;DHT22;6119;52.372;8.990;2024-03-23T07:38:00;7.90;99.90
12111;DHT22;6119;52.372;8.990;2024-03-23T07:40:50;7.90;99.90
12111;DHT22;6119;52.372;8.990;2024-03-23T07:43:40;7.90;99.90
12111;DHT22;6119;52.372;8.990;2024-03-23T07:46:25;8.00;99.90
12111;DHT22;6119;52.372;8.990;2024-03-23T07:49:11;7.90;99.90
12111;DHT22;6119;52.372;8.990;2024-03-23T07:51:56;8.10;99.90
12111;DHT22;6119;52.372;8.990;2024-03-23T07:54:43;8.10;99.90
12111;DHT22;6119;52.372;8.990;2024-03-23T07:57:28;8.20;99.90
12111;DHT22;6119;52.372;8.990;2024-03-23T08:00:14;8.30;99.90
12111;DHT22;6119;52.372;8.990;2024-03-23T08:02:59;8.40;99.90
12111;DHT22;6119;52.372;8.990;2024-03-23T08:05:45;8.50;99.90
12111;DHT22;6119;52.372;8.990;2024-03-23T08:08:29;8.40;99.90
12111;DHT22;6119;52.372;8.990;2024-03-23T08:11:16;8.60;99.90
12111;DHT22;6119;52.372;8.990;2024-03-23T08:14:02;8.80;99.90
12111;DHT22;6119;52.372;8.990;2024-03-23T08:16:49;8.80;99.90
12111;DHT22;6119;52.372;8.990;2024-03-23T08:19:35;8.80;99.90
12111;DHT22;6119;52.372;8.990;2024-03-23T08:22:20;8.90;99.90
12111;DHT22;6119;52.372;8.990;2024-03-23T08:25:06;8.70;99.90
12111;DHT22;6119;52.372;8.990;2024-03-23T08:27:52;8.70;99.90
12111;DHT22;6119;52.372;8.990;2024-03-23T08:30:38;8.60;99.90
12111;DHT22;6119;52.372;8.990;2024-03-23T08:33:23;8.60;99.90
12111;DHT22;6119;52.372;8.990;2024-03-23T08:36:10;8.60;99.90
12111;DHT22;6119;52.372;8.990;2024-03-23T08:38:56;8.60;99.90
12111;DHT22;6119;52.372;8.990;2024-03-23T08:41:42;8.90;99.90
12111;DHT22;6119;52.372;8.990;2024-03-23T08:44:31;9.10;99.90
12111;DHT22;6119;52.372;8.990;2024-03-23T08:47:17;9.40;99.90
12111;DHT22;6119;52.372;8.990;2024-03-23T08:50:02;9.60;99.90
12111;DHT22;6119;52.372;8.990;2024-03-23T08:52:50;9.70;99.90
12111;DHT22;6119;52.372;8.990;2024-03-23T08:55:35;9.50;99.90
12111;DHT22;6119;52.372;8.990;2024-03-23T08:58:23;9.60;99.90
12111;DHT22;6119;52.372;8.990;2024-03-23T09:01:11;9.60;99.90
12111;DHT22;6119;52.372;8.990;2024-03-23T09:03:57;9.80;99.90
12111;DHT22;6119;52.372;8.990;2024-03-23T09:06:42;9.70;99.90
12111;DHT22;6119;52.372;8.990;2024-03-23T09:09:28;9.20;99.90
12111;DHT22;6119;52.372;8.990;2024-03-23T09:12:12;9.30;99.90
12111;DHT22;6119;52.372;8.990;2024-03-23T09:14:58;9.20;99.90
12111;DHT22;6119;52.372;8.990;2024-03-23T09:17:44;9.00;99.90
12111;DHT22;6119;52.372;8.990;2024-03-23T09:20:32;9.10;99.90
12111;DHT22;6119;52.372;8.990;2024-03-23T09:23:17;9.00;99.90
12111;DHT22;6119;52.372;8.990;2024-03-23T09:26:03;9.50;99.90
12111;DHT22;6119;52.372;8.990;2024-03-23T09:28:48;9.70;99.90
12111;DHT22;6119;52.372;8.990;2024-03-23T09:31:34;9.80;99.90
12111;DHT22;6119;52.372;8.990;2024-03-23T09:34:20;9.80;99.90
12111;DHT22;6119;52.372;8.990;2024-03-23T09:37:06;9.60;99.90
12111;DHT22;6119;52.372;8.990;2024-03-23T09:39:51;9.70;99.90
12111;DHT22;6119;52.372;8.990;2024-03-23T09:42:36;9.70;99.90
12111;DHT22;6119;52.372;8.990;2024-03-23T09:45:25;9.50;99.90
12111;DHT22;6119;52.372;8.990;2024-03-23T09:48:12;9.50;99.90
12111;DHT22;6119;52.372;8.990;2024-03-23T09:50:59;9.50;99.90
12111;DHT22;6119;52.372;8.990;2024-03-23T09:53:45;9.40;99.90
12111;DHT22;6119;52.372;8.990;2024-03-23T09:56:30;9.30;99.90
12111;DHT22;6119;52.372;8.990;2024-03-23T09:59:16;9.00;99.90
12111;DHT22;6119;52.372;8.990;2024-03-23T10:02:01;8.70;99.90
12111;DHT22;6119;52.372;8.990;2024-03-23T10:04:47;8.70;99.90
12111;DHT22;6119;52.372;8.990;2024-03-23T10:07:34;8.80;99.90
12111;DHT22;6119;52.372;8.990;2024-03-23T10:10:20;9.20;99.90
12111;DHT22;6119;52.372;8.990;2024-03-23T10:13:05;9.60;99.90
12111;DHT22;6119;52.372;8.990;2024-03-23T10:15:55;9.70;99.90
12111;DHT22;6119;52.372;8.990;2024-03-23T10:18:41;9.20;99.90
12111;DHT22;6119;52.372;8.990;2024-03-23T10:21:27;9.50;99.90
12111;DHT22;6119;52.372;8.990;2024-03-23T10:24:13;9.50;99.90
12111;DHT22;6119;52.372;8.990;2024-03-23T10:26:59;9.60;99.90
12111;DHT22;6119;52.372;8.990;2024-03-23T10:29:45;9.60;99.90
12111;DHT22;6119;52.372;8.990;2024-03-23T10:32:30;9.50;99.90
12111;DHT22;6119;52.372;8.990;2024-03-23T10:35:16;9.40;99.90
12111;DHT22;6119;52.372;8.990;2024-03-23T10:38:05;9.30;99.90
12111;DHT22;6119;52.372;8.990;2024-03-23T10:40:57;9.80;99.90
12111;DHT22;6119;52.372;8.990;2024-03-23T10:43:44;9.70;99.90
12111;DHT22;6119;52.372;8.990;2024-03-23T10:46:31;9.90;99.90
12111;DHT22;6119;52.372;8.990;2024-03-23T10:49:17;9.80;99.90
12111;DHT22;6119;52.372;8.990;2024-03-23T10:52:03;9.60;99.90
12111;DHT22;6119;52.372;8.990;2024-03-23T10:54:51;9.60;99.90
12111;DHT22;6119;52.372;8.990;2024-03-23T10:57:41;9.70;99.90
12111;DHT22;6119;52.372;8.990;2024-03-23T11:00:28;8.90;99.90
12111;DHT22;6119;52.372;8.990;2024-03-23T11:03:31;8.70;99.90
12111;DHT22;6119;52.372;8.990;2024-03-23T11:06:35;8.60;99.90
12111;DHT22;6119;52.372;8.990;2024-03-23T11:09:38;8.90;99.90
12111;DHT22;6119;52.372;8.990;2024-03-23T11:12:29;8.10;99.90
12111;DHT22;6119;52.372;8.990;2024-03-23T11:15:17;7.80;99.90
12111;DHT22;6119;52.372;8.990;2024-03-23T11:18:04;8.20;99.90
12111;DHT22;6119;52.372;8.990;2024-03-23T11:20:49;8.70;99.90
12111;DHT22;6119;52.372;8.990;2024-03-23T11:23:35;9.20;99.90
12111;DHT22;6119;52.372;8.990;2024-03-23T11:26:20;9.00;99.90
12111;DHT22;6119;52.372;8.990;2024-03-23T11:29:09;9.00;99.90
12111;DHT22;6119;52.372;8.990;2024-03-23T11:31:56;9.00;99.90
12111;DHT22;6119;52.372;8.990;2024-03-23T11:34:42;8.50;99.90
12111;DHT22;6119;52.372;8.990;2024-03-23T11:37:27;8.60;99.90
12111;DHT22;6119;52.372;8.990;2024-03-23T11:40:19;8.50;99.90
12111;DHT22;6119;52.372;8.990;2024-03-23T11:43:05;8.50;99.90
12111;DHT22;6119;52.372;8.990;2024-03-23T11:45:52;8.30;99.90
12111;DHT22;6119;52.372;8.990;2024-03-23T11:48:40;8.60;99.90
12111;DHT22;6119;52.372;8.990;2024-03-23T11:51:25;8.40;99.90
12111;DHT22;6119;52.372;8.990;2024-03-23T11:54:11;8.40;99.90
12111;DHT22;6119;52.372;8.990;2024-03-23T11:56:57;8.40;99.90
12111;DHT22;6119;52.372;8.990;2024-03-23T11:59:43;8.20;99.90
12111;DHT22;6119;52.372;8.990;2024-03-23T12:02:29;8.00;99.90
12111;DHT22;6119;52.372;8.990;2024-03-23T12:05:16;7.90;99.90
12111;DHT22;6119;52.372;8.990;2024-03-23T12:08:22;8.00;99.90
12111;DHT22;6119;52.372;8.990;2024-03-23T12:11:08;8.30;99.90
12111;DHT22;6119;52.372;8.990;2024-03-23T12:13:59;8.30;99.90
12111;DHT22;6119;52.372;8.990;2024-03-23T12:16:44;8.40;99.90
12111;DHT22;6119;52.372;8.990;2024-03-23T12:19:30;8.50;99.90
12111;DHT22;6119;52.372;8.990;2024-03-23T12:22:20;8.90;99.90
12111;DHT22;6119;52.372;8.990;2024-03-23T12:25:07;9.40;99.90
12111;DHT22;6119;52.372;8.990;2024-03-23T12:27:51;9.30;99.90
12111;DHT22;6119;52.372;8.990;2024-03-23T12:30:39;9.00;99.90
12111;DHT22;6119;52.372;8.990;2024-03-23T12:33:24;8.70;99.90
12111;DHT22;6119;52.372;8.990;2024-03-23T12:36:10;8.60;99.90
12111;DHT22;6119;52.372;8.990;2024-03-23T12:38:56;8.80;99.90
12111;DHT22;6119;52.372;8.990;2024-03-23T12:41:42;9.40;99.90
12111;DHT22;6119;52.372;8.990;2024-03-23T12:44:27;9.40;99.90
12111;DHT22;6119;52.372;8.990;2024-03-23T12:47:12;9.70;99.90
12111;DHT22;6119;52.372;8.990;2024-03-23T12:49:58;9.60;99.90
12111;DHT22;6119;52.372;8.990;2024-03-23T12:52:44;9.30;99.90
12111;DHT22;6119;52.372;8.990;2024-03-23T12:55:30;9.40;99.90
12111;DHT22;6119;52.372;8.990;2024-03-23T12:58:15;9.80;99.90
12111;DHT22;6119;52.372;8.990;2024-03-23T13:01:00;10.30;99.90
12111;DHT22;6119;52.372;8.990;2024-03-23T13:03:46;10.40;99.90
12111;DHT22;6119;52.372;8.990;2024-03-23T13:06:32;10.70;99.90
12111;DHT22;6119;52.372;8.990;2024-03-23T13:09:19;10.40;99.90
12111;DHT22;6119;52.372;8.990;2024-03-23T13:12:06;10.30;99.90
12111;DHT22;6119;52.372;8.990;2024-03-23T13:14:52;10.70;99.90
12111;DHT22;6119;52.372;8.990;2024-03-23T13:17:37;10.80;99.90
12111;DHT22;6119;52.372;8.990;2024-03-23T13:20:22;10.60;99.90
12111;DHT22;6119;52.372;8.990;2024-03-23T13:23:07;11.00;99.90
12111;DHT22;6119;52.372;8.990;2024-03-23T13:25:54;10.60;99.90
12111;DHT22;6119;52.372;8.990;2024-03-23T13:28:42;10.20;99.90
12111;DHT22;6119;52.372;8.990;2024-03-23T13:31:26;10.00;99.90
12111;DHT22;6119;52.372;8.990;2024-03-23T13:34:12;10.00;99.90
12111;DHT22;6119;52.372;8.990;2024-03-23T13:36:59;9.80;99.90
12111;DHT22;6119;52.372;8.990;2024-03-23T13:39:44;9.70;99.90
12111;DHT22;6119;52.372;8.990;2024-03-23T13:42:30;9.40;99.90
12111;DHT22;6119;52.372;8.990;2024-03-23T13:45:16;9.30;99.90
12111;DHT22;6119;52.372;8.990;2024-03-23T13:48:02;9.00;99.90
12111;DHT22;6119;52.372;8.990;2024-03-23T13:50:56;8.80;99.90
12111;DHT22;6119;52.372;8.990;2024-03-23T13:53:42;8.60;99.90
12111;DHT22;6119;52.372;8.990;2024-03-23T13:56:26;8.30;99.90
12111;DHT22;6119;52.372;8.990;2024-03-23T13:59:13;8.30;99.90
12111;DHT22;6119;52.372;8.990;2024-03-23T14:01:59;8.40;99.90
12111;DHT22;6119;52.372;8.990;2024-03-23T14:04:45;8.40;99.90
12111;DHT22;6119;52.372;8.990;2024-03-23T14:07:30;8.30;99.90
12111;DHT22;6119;52.372;8.990;2024-03-23T14:10:16;8.20;99.90
12111;DHT22;6119;52.372;8.990;2024-03-23T14:13:01;8.30;99.90
12111;DHT22;6119;52.372;8.990;2024-03-23T14:15:52;8.40;99.90
12111;DHT22;6119;52.372;8.990;2024-03-23T14:18:38;8.30;99.90
12111;DHT22;6119;52.372;8.990;2024-03-23T14:21:24;8.70;99.90
12111;DHT22;6119;52.372;8.990;2024-03-23T14:24:09;9.20;99.90
12111;DHT22;6119;52.372;8.990;2024-03-23T14:26:55;9.50;99.90
12111;DHT22;6119;52.372;8.990;2024-03-23T14:29:40;9.90;99.90
12111;DHT22;6119;52.372;8.990;2024-03-23T14:32:25;10.00;99.90
12111;DHT22;6119;52.372;8.990;2024-03-23T14:35:12;10.30;99.90
12111;DHT22;6119;52.372;8.990;2024-03-23T14:37:58;10.60;99.90
12111;DHT22;6119;52.372;8.990;2024-03-23T14:40:42;10.40;99.90
12111;DHT22;6119;52.372;8.990;2024-03-23T14:43:28;10.50;99.90
12111;DHT22;6119;52.372;8.990;2024-03-23T14:46:14;10.10;99.90
12111;DHT22;6119;52.372;8.990;2024-03-23T14:49:00;10.10;99.90
12111;DHT22;6119;52.372;8.990;2024-03-23T14:51:47;9.90;99.90
12111;DHT22;6119;52.372;8.990;2024-03-23T14:54:32;9.70;99.90
12111;DHT22;6119;52.372;8.990;2024-03-23T14:57:21;9.70;99.90
12111;DHT22;6119;52.372;8.990;2024-03-23T15:00:07;9.40;99.90
12111;DHT22;6119;52.372;8.990;2024-03-23T15:02:55;8.80;99.90
12111;DHT22;6119;52.372;8.990;2024-03-23T15:05:42;7.90;99.90
12111;DHT22;6119;52.372;8.990;2024-03-23T15:08:28;7.80;99.90
12111;DHT22;6119;52.372;8.990;2024-03-23T15:11:15;7.60;99.90
12111;DHT22;6119;52.372;8.990;2024-03-23T15:14:03;7.30;99.90
12111;DHT22;6119;52.372;8.990;2024-03-23T15:16:54;7.30;99.90
12111;DHT22;6119;52.372;8.990;2024-03-23T15:19:42;7.80;99.90
12111;DHT22;6119;52.372;8.990;2024-03-23T15:22:31;8.50;99.90
12111;DHT22;6119;52.372;8.990;2024-03-23T15:25:23;8.90;99.90
12111;DHT22;6119;52.372;8.990;2024-03-23T15:28:09;9.30;99.90
12111;DHT22;6119;52.372;8.990;2024-03-23T15:30:58;9.50;99.90
12111;DHT22;6119;52.372;8.990;2024-03-23T15:33:44;9.50;99.90
12111;DHT22;6119;52.372;8.990;2024-03-23T15:36:29;9.50;99.90
12111;DHT22;6119;52.372;8.990;2024-03-23T15:39:15;9.80;99.90
12111;DHT22;6119;52.372;8.990;2024-03-23T15:42:01;10.10;99.90
12111;DHT22;6119;52.372;8.990;2024-03-23T15:44:48;10.20;99.90
12111;DHT22;6119;52.372;8.990;2024-03-23T15:47:36;10.40;99.90
12111;DHT22;6119;52.372;8.990;2024-03-23T15:50:22;10.40;99.90
12111;DHT22;6119;52.372;8.990;2024-03-23T15:53:07;10.60;99.90
12111;DHT22;6119;52.372;8.990;2024-03-23T15:55:56;10.50;99.90
12111;DHT22;6119;52.372;8.990;2024-03-23T15:58:42;11.00;99.90
12111;DHT22;6119;52.372;8.990;2024-03-23T16:01:28;11.00;99.90
12111;DHT22;6119;52.372;8.990;2024-03-23T16:04:18;11.40;99.90
12111;DHT22;6119;52.372;8.990;2024-03-23T16:07:04;11.20;99.90
12111;DHT22;6119;52.372;8.990;2024-03-23T16:09:49;11.00;99.90
12111;DHT22;6119;52.372;8.990;2024-03-23T16:12:35;10.90;99.90
12111;DHT22;6119;52.372;8.990;2024-03-23T16:15:21;11.30;99.90
12111;DHT22;6119;52.372;8.990;2024-03-23T16:18:09;11.30;99.90
12111;DHT22;6119;52.372;8.990;2024-03-23T16:20:56;10.90;99.90
12111;DHT22;6119;52.372;8.990;2024-03-23T16:23:49;10.90;99.90
12111;DHT22;6119;52.372;8.990;2024-03-23T16:26:33;11.10;99.90
12111;DHT22;6119;52.372;8.990;2024-03-23T16:29:19;11.10;99.90
12111;DHT22;6119;52.372;8.990;2024-03-23T16:32:06;10.70;99.90
12111;DHT22;6119;52.372;8.990;2024-03-23T16:34:52;10.30;99.90
12111;DHT22;6119;52.372;8.990;2024-03-23T16:37:37;10.10;99.90
12111;DHT22;6119;52.372;8.990;2024-03-23T16:40:25;10.00;99.90
12111;DHT22;6119;52.372;8.990;2024-03-23T16:43:10;9.80;99.90
12111;DHT22;6119;52.372;8.990;2024-03-23T16:45:58;9.80;99.90
12111;DHT22;6119;52.372;8.990;2024-03-23T16:48:48;9.60;99.90
12111;DHT22;6119;52.372;8.990;2024-03-23T16:51:33;9.60;99.90
12111;DHT22;6119;52.372;8.990;2024-03-23T16:54:19;9.30;99.90
12111;DHT22;6119;52.372;8.990;2024-03-23T16:57:04;9.40;99.90
12111;DHT22;6119;52.372;8.990;2024-03-23T16:59:50;9.30;99.90
12111;DHT22;6119;52.372;8.990;2024-03-23T17:02:36;9.10;99.90
12111;DHT22;6119;52.372;8.990;2024-03-23T17:05:26;8.90;99.90
12111;DHT22;6119;52.372;8.990;2024-03-23T17:08:11;8.30;99.90
12111;DHT22;6119;52.372;8.990;2024-03-23T17:10:58;7.90;99.90
12111;DHT22;6119;52.372;8.990;2024-03-23T17:13:44;7.90;99.90
12111;DHT22;6119;52.372;8.990;2024-03-23T17:16:35;8.00;99.90
12111;DHT22;6119;52.372;8.990;2024-03-23T17:19:20;7.70;99.90
12111;DHT22;6119;52.372;8.990;2024-03-23T17:22:09;7.80;99.90
12111;DHT22;6119;52.372;8.990;2024-03-23T17:24:54;7.60;99.90
12111;DHT22;6119;52.372;8.990;2024-03-23T17:27:42;7.50;99.90
12111;DHT22;6119;52.372;8.990;2024-03-23T17:30:27;7.40;99.90
12111;DHT22;6119;52.372;8.990;2024-03-23T17:33:13;7.20;99.90
12111;DHT22;6119;52.372;8.990;2024-03-23T17:36:02;7.10;99.90
12111;DHT22;6119;52.372;8.990;2024-03-23T17:38:49;7.10;99.90
12111;DHT22;6119;52.372;8.990;2024-03-23T17:41:34;7.20;99.90
12111;DHT22;6119;52.372;8.990;2024-03-23T17:44:22;7.30;99.90
12111;DHT22;6119;52.372;8.990;2024-03-23T17:47:07;7.30;99.90
12111;DHT22;6119;52.372;8.990;2024-03-23T17:49:56;7.30;99.90
12111;DHT22;6119;52.372;8.990;2024-03-23T17:52:43;7.20;99.90
12111;DHT22;6119;52.372;8.990;2024-03-23T17:55:34;7.20;99.90
12111;DHT22;6119;52.372;8.990;2024-03-23T17:58:20;7.30;99.90
12111;DHT22;6119;52.372;8.990;2024-03-23T18:01:07;7.30;99.90
12111;DHT22;6119;52.372;8.990;2024-03-23T18:03:53;7.40;99.90
12111;DHT22;6119;52.372;8.990;2024-03-23T18:06:39;7.40;99.90
12111;DHT22;6119;52.372;8.990;2024-03-23T18:09:24;7.20;99.90
12111;DHT22;6119;52.372;8.990;2024-03-23T18:12:12;7.30;99.90
12111;DHT22;6119;52.372;8.990;2024-03-23T18:14:57;7.30;99.90
12111;DHT22;6119;52.372;8.990;2024-03-23T18:17:45;7.20;99.90
12111;DHT22;6119;52.372;8.990;2024-03-23T18:20:33;7.10;99.90
12111;DHT22;6119;52.372;8.990;2024-03-23T18:23:20;7.20;99.90
12111;DHT22;6119;52.372;8.990;2024-03-23T18:26:06;7.30;99.90
12111;DHT22;6119;52.372;8.990;2024-03-23T18:28:54;7.10;99.90
12111;DHT22;6119;52.372;8.990;2024-03-23T18:31:40;7.20;99.90
12111;DHT22;6119;52.372;8.990;2024-03-23T18:34:27;7.10;99.90
12111;DHT22;6119;52.372;8.990;2024-03-23T18:37:13;7.20;99.90
12111;DHT22;6119;52.372;8.990;2024-03-23T18:40:00;7.10;99.90
12111;DHT22;6119;52.372;8.990;2024-03-23T18:42:45;7.10;99.90
12111;DHT22;6119;52.372;8.990;2024-03-23T18:45:33;7.20;99.90
12111;DHT22;6119;52.372;8.990;2024-03-23T18:48:20;7.00;99.90
12111;DHT22;6119;52.372;8.990;2024-03-23T18:51:07;7.00;99.90
12111;DHT22;6119;52.372;8.990;2024-03-23T18:53:52;7.00;99.90
12111;DHT22;6119;52.372;8.990;2024-03-23T18:56:39;7.20;99.90